Nearby METAR Reports


NZWN - Wellington Intl, New Zealand
Distance from station: SSW 357km
Updated: 23/04/2018 07:30
Partly Cloudy
Partly Cloudy
 Wind from NNE
Wind: NNE 6 km/h
Temperature: 10°C
Dew Point: 7°C
Humidity: 82%
Barometer: 1021 hPa
Clouds: Partly Cloudy
Visibility: 10 km
Cloud details: Partly Cloudy 1341 m
2018/04/22 19:30 NZWN 221930Z AUTO 03003KT 350V080 9999 SCT044/// 10/07 Q1021 NOSIG
NZAA - Auckland Intl Ar, New Zealand
Distance from station: NW 162km
Updated: 23/04/2018 07:30
Overcast
Overcast
 Wind from ESE
Wind: ESE 4 km/h
Temperature: 14°C
Dew Point: 11°C
Humidity: 82%
Barometer: 1023 hPa
Clouds: Overcast
Visibility: 10 km
Cloud details: Overcast 1311 m
2018/04/22 19:30 NZAA 221930Z AUTO 11002KT 9999 OVC043/// 14/11 Q1023 NOSIG
 
NZCH - Christchurch Int, New Zealand
Distance from station: SSW 647km
Updated: 23/04/2018 07:30
Clear
Clear
 Wind from N
Wind: N 6 km/h
Temperature: 2°C
Dew Point: 2°C
Humidity: 100%
Barometer: 1020 hPa
Clouds: Clear
Visibility: 10 km
2018/04/22 19:30 NZCH 221930Z AUTO 01003KT 9999 NCD 02/02 Q1020 NOSIG
YSNF - Norfolk Island A, Australia
Distance from station: NW 1258km
Updated: 23/04/2018 07:34
Overcast
Overcast
 Wind from E
Wind: E 31 km/h, Gust: 52 km/h
Temperature: 21°C
Dew Point: 18°C
Humidity: 83%
Barometer: 1019 hPa
Clouds: Overcast
Visibility: 10 km
Cloud details: Mostly Cloudy 488 m
Overcast 640 m
Overcast 853 m
2018/04/22 19:34 YSNF 221934Z AUTO 09017G28KT 9999 // BKN016 OVC021 OVC028 21/18 Q1019